Time;durP1;ratioP1;P1;durP2;ratioP2;P2;SDS_P1;SDS_P2;PMS_P1;PMS_P2;Temp;Humidity;BMP_temperature;BMP_pressure;BME280_temperature;BME280_humidity;BME280_pressure;Samples;Min_cycle;Max_cycle;Signal;HPM_P1;HPM_P2
2022/05/05 00:01:40;;;;;;;4.68;4.18;;;8.80;82.30;;;;;;5094691;28;20276;-59
2022/05/05 00:04:07;;;;;;;7.53;5.10;;;8.80;82.60;;;;;;5093215;28;20196;-60
2022/05/05 00:06:34;;;;;;;8.65;4.75;;;8.80;82.90;;;;;;5093013;28;20729;-59
2022/05/05 00:09:03;;;;;;;6.07;5.05;;;8.70;83.10;;;;;;5093222;28;20208;-59
2022/05/05 00:14:27;;;;;;;7.70;5.60;;;8.70;83.90;;;;;;5094027;28;20210;-58
2022/05/05 00:16:56;;;;;;;5.35;4.82;;;8.60;84.10;;;;;;5093580;28;20428;-58
2022/05/05 00:19:23;;;;;;;10.48;5.53;;;8.60;84.60;;;;;;5092916;28;20582;-59
2022/05/05 00:21:50;;;;;;;9.70;5.30;;;8.50;84.80;;;;;;5093091;28;20207;-58
2022/05/05 00:24:19;;;;;;;6.15;4.82;;;8.50;85.00;;;;;;5093428;28;20196;-60
2022/05/05 00:26:46;;;;;;;14.63;6.13;;;8.40;85.20;;;;;;5097147;28;20250;-59
2022/05/05 00:29:13;;;;;;;8.80;5.85;;;8.40;85.70;;;;;;5097531;28;20242;-59
2022/05/05 00:31:41;;;;;;;10.13;5.55;;;8.40;85.90;;;;;;5097346;28;20694;-59
2022/05/05 00:34:08;;;;;;;13.20;5.95;;;8.40;86.20;;;;;;5097369;28;20246;-58
2022/05/05 00:36:35;;;;;;;8.93;6.03;;;8.30;86.60;;;;;;5097293;28;20586;-59
2022/05/05 00:39:02;;;;;;;8.88;6.38;;;8.30;87.00;;;;;;5096751;28;20195;-59
2022/05/05 00:41:34;;;;;;;7.70;5.97;;;8.20;87.30;;;;;;5097149;28;20827;-59
2022/05/05 00:44:03;;;;;;;8.80;6.22;;;8.20;87.90;;;;;;5096883;28;20186;-59
2022/05/05 00:46:31;;;;;;;11.38;6.75;;;8.10;88.40;;;;;;5096545;28;20229;-57
2022/05/05 00:48:58;;;;;;;11.75;6.53;;;8.10;89.00;;;;;;5097219;28;20211;-59
2022/05/05 00:51:26;;;;;;;7.35;6.50;;;8.10;89.40;;;;;;5097134;28;20204;-59
2022/05/05 00:53:54;;;;;;;7.63;5.97;;;8.00;89.70;;;;;;5096835;28;20289;-58
2022/05/05 00:56:23;;;;;;;9.38;6.45;;;8.00;90.00;;;;;;5096758;28;20200;-59
2022/05/05 00:58:53;;;;;;;8.65;6.38;;;8.00;90.20;;;;;;5096537;28;20672;-58
2022/05/05 01:01:22;;;;;;;9.85;6.15;;;7.90;90.30;;;;;;5097217;28;20210;-58
2022/05/05 01:03:50;;;;;;;7.38;6.05;;;7.90;90.40;;;;;;5096477;28;20200;-58
2022/05/05 01:06:18;;;;;;;8.07;5.78;;;7.90;90.60;;;;;;5096661;28;20203;-58
2022/05/05 01:08:46;;;;;;;9.43;5.72;;;7.80;90.80;;;;;;5096721;28;20207;-58
2022/05/05 01:11:13;;;;;;;9.70;6.57;;;7.80;90.90;;;;;;5096512;28;20207;-57
2022/05/05 01:13:42;;;;;;;9.82;6.57;;;7.80;91.10;;;;;;5096071;28;20263;-60
2022/05/05 01:16:11;;;;;;;8.30;6.15;;;7.70;91.20;;;;;;5096066;28;20203;-59
2022/05/05 01:18:38;;;;;;;10.20;6.50;;;7.70;91.40;;;;;;5096455;28;20214;-60
2022/05/05 01:21:06;;;;;;;9.23;7.18;;;7.70;91.60;;;;;;5096201;28;20198;-60
2022/05/05 01:23:34;;;;;;;10.60;6.00;;;7.70;91.90;;;;;;5096358;28;20207;-59
2022/05/05 01:28:46;;;;;;;7.53;6.82;;;7.60;92.30;;;;;;5096414;28;20177;-59
2022/05/05 01:31:14;;;;;;;10.00;6.50;;;7.60;92.60;;;;;;5096133;28;20208;-59
2022/05/05 01:33:41;;;;;;;16.00;6.60;;;7.50;92.70;;;;;;5096248;28;20209;-59
2022/05/05 01:36:08;;;;;;;11.27;6.75;;;7.50;92.90;;;;;;5095357;28;20256;-59
2022/05/05 01:38:37;;;;;;;9.50;6.68;;;7.50;93.20;;;;;;5096272;28;20254;-59
2022/05/05 01:41:05;;;;;;;9.52;6.50;;;7.50;93.40;;;;;;5096025;28;20215;-59
2022/05/05 01:43:32;;;;;;;11.15;6.70;;;7.40;93.50;;;;;;5096024;28;20235;-59
2022/05/05 01:45:59;;;;;;;11.00;7.07;;;7.40;93.60;;;;;;5095964;28;20210;-59
2022/05/05 01:48:26;;;;;;;11.02;7.40;;;7.40;93.80;;;;;;5096091;28;20236;-59
2022/05/05 01:50:53;;;;;;;8.77;6.75;;;7.40;94.00;;;;;;5096070;28;20227;-59
2022/05/05 01:53:21;;;;;;;10.00;6.90;;;7.30;94.00;;;;;;5096088;28;20554;-59
2022/05/05 01:55:49;;;;;;;11.73;7.18;;;7.30;94.20;;;;;;5096092;28;20239;-59
2022/05/05 01:58:16;;;;;;;9.85;6.55;;;7.30;94.30;;;;;;5095797;28;20283;-59
2022/05/05 02:00:43;;;;;;;12.80;6.60;;;7.30;94.50;;;;;;5096596;28;20223;-58
2022/05/05 02:03:13;;;;;;;6.75;6.07;;;7.30;94.60;;;;;;5095629;28;20695;-59
2022/05/05 02:05:44;;;;;;;9.35;8.45;;;7.30;94.60;;;;;;5096819;28;20235;-59
2022/05/05 02:08:12;;;;;;;7.00;5.93;;;7.30;94.60;;;;;;5095955;28;20234;-60
2022/05/05 02:10:39;;;;;;;9.68;6.75;;;7.30;94.60;;;;;;5095477;28;20216;-59
2022/05/05 02:13:09;;;;;;;8.57;6.18;;;7.30;94.60;;;;;;5095504;28;20204;-59
2022/05/05 02:15:36;;;;;;;7.65;6.70;;;7.30;94.60;;;;;;5095294;28;20602;-58
2022/05/05 02:18:10;;;;;;;9.32;6.63;;;7.30;94.60;;;;;;5095252;28;20219;-58
2022/05/05 02:20:38;;;;;;;9.35;6.38;;;7.30;94.60;;;;;;5095170;28;20239;-58
2022/05/05 02:23:06;;;;;;;13.57;6.88;;;7.30;94.60;;;;;;5095273;28;20211;-58
2022/05/05 02:25:33;;;;;;;10.75;7.20;;;7.20;94.80;;;;;;5095342;28;20212;-58
2022/05/05 02:28:00;;;;;;;10.93;7.00;;;7.20;94.80;;;;;;5094683;28;20239;-58
2022/05/05 02:30:29;;;;;;;8.18;7.00;;;7.20;94.90;;;;;;5095133;28;20574;-58
2022/05/05 02:32:57;;;;;;;7.32;6.63;;;7.10;94.90;;;;;;5095185;28;20264;-59
2022/05/05 02:35:24;;;;;;;10.68;7.38;;;7.10;95.00;;;;;;5094743;28;20218;-58
2022/05/05 02:40:36;;;;;;;10.57;7.00;;;7.00;95.40;;;;;;5094881;28;20267;-58
2022/05/05 02:43:03;;;;;;;9.05;6.90;;;7.00;95.40;;;;;;5094924;28;20203;-58
2022/05/05 02:45:32;;;;;;;13.50;7.07;;;7.00;95.70;;;;;;5094978;28;20200;-58
2022/05/05 02:47:59;;;;;;;9.40;6.90;;;6.90;95.80;;;;;;5093621;28;20225;-58
2022/05/05 02:50:27;;;;;;;8.98;7.30;;;6.90;95.90;;;;;;5094670;28;20609;-59
2022/05/05 02:52:54;;;;;;;8.25;6.43;;;6.90;96.10;;;;;;5094812;28;20254;-59
2022/05/05 02:55:20;;;;;;;11.32;7.13;;;6.80;96.40;;;;;;5094281;28;20221;-58
2022/05/05 02:57:47;;;;;;;10.45;7.18;;;6.80;96.50;;;;;;5094420;28;20219;-58
2022/05/05 03:00:15;;;;;;;13.52;7.85;;;6.80;96.80;;;;;;5094555;28;20209;-58
2022/05/05 03:02:45;;;;;;;7.82;6.85;;;6.80;97.00;;;;;;5094137;28;20206;-59
2022/05/05 03:05:14;;;;;;;11.88;7.10;;;6.80;97.30;;;;;;5094314;28;20200;-58
2022/05/05 03:07:42;;;;;;;8.88;6.60;;;6.90;97.30;;;;;;5094623;28;20256;-58
2022/05/05 03:10:11;;;;;;;7.90;6.88;;;6.90;97.20;;;;;;5094354;28;20236;-58
2022/05/05 03:12:38;;;;;;;11.10;7.30;;;7.00;97.10;;;;;;5094357;28;20304;-58
2022/05/05 03:15:07;;;;;;;10.55;7.68;;;7.00;96.90;;;;;;5094105;28;20221;-58
2022/05/05 03:17:34;;;;;;;10.18;7.40;;;7.00;96.70;;;;;;5093868;28;20256;-58
2022/05/05 03:20:03;;;;;;;11.68;7.57;;;7.00;96.60;;;;;;5094237;28;20208;-58
2022/05/05 03:22:30;;;;;;;12.90;7.80;;;7.00;96.60;;;;;;5093910;28;20205;-58
2022/05/05 03:24:58;;;;;;;13.40;8.35;;;7.00;96.60;;;;;;5095276;28;20199;-58
2022/05/05 03:27:25;;;;;;;12.25;8.88;;;7.00;96.70;;;;;;5109263;22;20236;-60
2022/05/05 03:29:52;;;;;;;9.77;7.60;;;6.90;96.70;;;;;;5096438;28;20204;-60
2022/05/05 03:32:19;;;;;;;8.90;7.95;;;6.90;96.80;;;;;;5095315;28;20208;-60
2022/05/05 03:34:46;;;;;;;11.90;7.28;;;6.90;96.90;;;;;;5094463;28;20226;-61
2022/05/05 03:37:15;;;;;;;12.13;8.77;;;6.90;97.00;;;;;;5094583;28;20746;-59
2022/05/05 03:39:42;;;;;;;11.23;7.90;;;6.80;97.20;;;;;;5094491;28;20697;-60
2022/05/05 03:42:09;;;;;;;15.60;9.07;;;6.80;97.30;;;;;;5094614;28;20198;-60
2022/05/05 03:44:36;;;;;;;14.40;8.25;;;6.80;97.50;;;;;;5094545;28;20260;-60
2022/05/05 03:47:03;;;;;;;8.32;7.32;;;6.80;97.50;;;;;;5094221;28;20742;-60
2022/05/05 03:49:31;;;;;;;10.98;8.15;;;6.90;97.60;;;;;;5095556;28;20242;-60
2022/05/05 03:51:58;;;;;;;10.52;8.93;;;6.90;97.60;;;;;;5095232;28;20202;-60
2022/05/05 03:54:27;;;;;;;20.08;8.27;;;6.80;97.60;;;;;;5095754;28;20216;-60
2022/05/05 03:56:54;;;;;;;12.63;7.88;;;6.80;97.70;;;;;;5095166;28;20232;-61
2022/05/05 03:59:22;;;;;;;9.70;8.18;;;6.90;98.10;;;;;;5095278;28;20689;-60
2022/05/05 04:01:49;;;;;;;10.48;7.40;;;6.90;97.90;;;;;;5095617;28;20227;-60
2022/05/05 04:04:17;;;;;;;16.77;8.90;;;6.90;98.00;;;;;;5094301;28;20199;-59
2022/05/05 04:09:42;;;;;;;9.95;7.40;;;6.90;97.70;;;;;;5091374;27;20549;-59
2022/05/05 04:12:10;;;;;;;10.95;8.10;;;7.00;97.70;;;;;;5093376;28;20204;-60
2022/05/05 04:14:37;;;;;;;11.85;9.15;;;7.00;97.70;;;;;;5108406;28;20561;-60
2022/05/05 04:17:05;;;;;;;10.00;8.50;;;7.00;97.90;;;;;;5090820;28;20250;-60
2022/05/05 04:19:32;;;;;;;14.27;8.57;;;7.20;98.40;;;;;;5090914;28;20203;-60
2022/05/05 04:21:59;;;;;;;15.77;8.85;;;7.40;98.60;;;;;;5090880;28;20196;-60
2022/05/05 04:24:26;;;;;;;12.80;8.35;;;7.70;98.30;;;;;;5090834;28;20214;-60
2022/05/05 04:26:55;;;;;;;10.80;8.38;;;8.00;97.80;;;;;;5090905;28;20219;-60
2022/05/05 04:29:22;;;;;;;8.52;7.72;;;8.40;97.20;;;;;;5091014;28;20242;-61
2022/05/05 04:31:49;;;;;;;15.60;7.85;;;8.70;96.50;;;;;;5090994;28;20696;-59
2022/05/05 04:34:16;;;;;;;11.00;8.32;;;8.90;95.70;;;;;;5090935;28;20208;-60
2022/05/05 04:36:43;;;;;;;9.97;6.57;;;9.30;94.80;;;;;;5090630;28;20214;-60
2022/05/05 04:39:10;;;;;;;8.73;7.43;;;9.50;93.90;;;;;;5092912;28;20456;-60
2022/05/05 04:41:38;;;;;;;8.50;7.40;;;9.80;93.10;;;;;;5097031;28;20196;-60
2022/05/05 04:44:06;;;;;;;8.83;7.13;;;10.00;91.70;;;;;;5095631;28;20457;-60
2022/05/05 04:46:33;;;;;;;9.53;7.13;;;10.20;91.00;;;;;;5093257;28;20439;-60
2022/05/05 04:49:00;;;;;;;9.13;7.20;;;10.40;90.00;;;;;;5096164;28;20497;-60
2022/05/05 04:51:27;;;;;;;10.70;7.33;;;10.50;88.80;;;;;;5099861;28;20801;-61
2022/05/05 04:53:54;;;;;;;9.73;7.80;;;10.60;87.40;;;;;;5099077;28;20839;-60
2022/05/05 04:56:21;;;;;;;17.97;7.90;;;10.70;86.10;;;;;;5098267;28;20449;-59
2022/05/05 04:58:48;;;;;;;11.27;7.60;;;10.80;84.80;;;;;;5101641;28;20457;-60
2022/05/05 05:01:17;;;;;;;11.33;7.53;;;10.90;83.00;;;;;;5099906;28;20450;-58
2022/05/05 05:03:44;;;;;;;10.47;7.20;;;10.90;81.90;;;;;;5100942;28;20479;-58
2022/05/05 05:06:11;;;;;;;10.80;6.70;;;10.80;80.80;;;;;;5097216;28;20450;-59
2022/05/05 05:08:40;;;;;;;12.50;7.47;;;10.80;79.90;;;;;;5097874;28;20509;-59
2022/05/05 05:11:07;;;;;;;11.80;7.17;;;10.80;79.60;;;;;;5097419;28;20454;-59
2022/05/05 05:13:36;;;;;;;13.30;7.37;;;10.80;79.10;;;;;;5100428;28;20469;-58
2022/05/05 05:16:03;;;;;;;11.57;7.40;;;10.70;78.00;;;;;;5098997;28;20510;-58
2022/05/05 05:18:32;;;;;;;12.53;7.33;;;10.70;77.80;;;;;;5098589;28;20469;-58
2022/05/05 05:20:59;;;;;;;8.87;6.73;;;10.70;77.60;;;;;;5084317;28;20445;-58
2022/05/05 05:23:26;;;;;;;10.17;8.17;;;10.80;76.70;;;;;;5087394;28;20890;-59
2022/05/05 05:25:54;;;;;;;8.47;6.77;;;10.80;76.10;;;;;;5086305;28;20604;-59
2022/05/05 05:28:21;;;;;;;12.33;7.40;;;10.90;75.80;;;;;;5086834;28;20485;-58
2022/05/05 05:30:48;;;;;;;9.50;7.40;;;11.00;75.20;;;;;;5086187;28;20438;-59
2022/05/05 05:33:15;;;;;;;9.33;6.27;;;11.00;74.40;;;;;;5085555;28;20478;-58
2022/05/05 05:35:45;;;;;;;14.70;8.07;;;11.10;73.80;;;;;;5078847;28;20876;-58
2022/05/05 05:38:13;;;;;;;9.77;7.57;;;11.10;73.30;;;;;;5078022;28;20525;-58
2022/05/05 05:40:41;;;;;;;9.90;8.17;;;11.00;73.00;;;;;;5077298;28;20443;-58
2022/05/05 05:43:08;;;;;;;10.23;7.20;;;11.00;73.50;;;;;;5076643;28;20444;-59
2022/05/05 05:45:36;;;;;;;11.50;7.77;;;11.00;73.70;;;;;;5077389;28;20522;-57
2022/05/05 05:48:03;;;;;;;11.90;7.97;;;11.10;73.70;;;;;;5080688;28;20490;-58
2022/05/05 05:50:31;;;;;;;13.13;8.33;;;11.10;73.50;;;;;;5079522;28;20468;-59
2022/05/05 05:53:00;;;;;;;10.70;8.50;;;11.10;73.00;;;;;;5080038;28;20447;-58
2022/05/05 05:55:27;;;;;;;8.60;7.23;;;11.00;72.90;;;;;;5081849;28;20945;-58
2022/05/05 05:57:54;;;;;;;13.03;8.57;;;10.90;72.70;;;;;;5084947;28;20486;-58
2022/05/05 06:00:21;;;;;;;13.63;8.37;;;10.80;72.60;;;;;;5086989;28;20466;-58
2022/05/05 06:05:34;;;;;;;11.33;8.80;;;10.70;72.50;;;;;;5090364;28;20479;-58
2022/05/05 06:08:03;;;;;;;13.57;9.80;;;10.60;72.20;;;;;;5088402;28;20505;-58
2022/05/05 06:10:31;;;;;;;11.63;10.10;;;10.60;72.30;;;;;;5091231;28;20472;-59
2022/05/05 06:12:58;;;;;;;11.30;8.93;;;10.50;72.20;;;;;;5088446;28;20443;-60
2022/05/05 06:15:26;;;;;;;16.23;9.80;;;10.50;71.80;;;;;;5083547;28;20454;-60
2022/05/05 06:17:53;;;;;;;15.13;9.17;;;10.50;71.40;;;;;;5078183;28;20469;-61
2022/05/05 06:20:20;;;;;;;12.20;9.80;;;10.40;72.20;;;;;;5075546;28;20448;-60
2022/05/05 06:22:50;;;;;;;15.40;9.47;;;10.40;71.60;;;;;;5077156;28;20439;-60
2022/05/05 06:25:20;;;;;;;10.50;8.70;;;10.50;71.40;;;;;;5079571;28;20883;-60
2022/05/05 06:27:48;;;;;;;13.43;8.53;;;10.60;71.20;;;;;;5075580;28;20494;-60
2022/05/05 06:30:16;;;;;;;12.90;8.37;;;10.60;70.60;;;;;;5075673;28;20486;-59
2022/05/05 06:32:44;;;;;;;11.90;8.73;;;10.50;70.40;;;;;;5074653;28;20793;-60
2022/05/05 06:35:12;;;;;;;17.63;8.57;;;10.50;70.40;;;;;;5075154;28;20465;-59
2022/05/05 06:37:39;;;;;;;10.63;7.60;;;10.60;70.00;;;;;;5071988;28;20465;-59
2022/05/05 06:40:08;;;;;;;11.70;8.30;;;10.70;69.70;;;;;;5075969;28;20446;-59
2022/05/05 06:42:36;;;;;;;11.83;7.97;;;10.80;69.10;;;;;;5084478;28;20450;-60
2022/05/05 06:45:05;;;;;;;10.20;7.03;;;10.80;68.70;;;;;;5081019;28;20450;-60
2022/05/05 06:47:32;;;;;;;10.87;7.70;;;10.90;68.20;;;;;;5077055;28;20482;-59
2022/05/05 06:50:00;;;;;;;11.40;7.83;;;10.90;67.50;;;;;;5074666;28;20471;-58
2022/05/05 06:52:27;;;;;;;9.93;8.53;;;10.90;67.00;;;;;;5075699;28;20450;-60
2022/05/05 06:54:54;;;;;;;8.97;8.03;;;10.90;66.70;;;;;;5074757;28;20473;-61
2022/05/05 06:57:21;;;;;;;11.68;7.05;;;11.00;66.60;;;;;;5075459;28;20468;-59
2022/05/05 06:59:50;;;;;;;14.83;7.13;;;11.10;66.00;;;;;;5073692;28;20202;-60
2022/05/05 07:02:17;;;;;;;8.60;6.83;;;11.10;65.50;;;;;;5074610;28;20450;-61
2022/05/05 07:07:28;;;;;;;11.27;6.15;;;11.20;65.20;;;;;;5073211;28;20425;-59
2022/05/05 07:12:39;;;;;;;11.33;6.03;;;11.40;63.70;;;;;;5074589;28;20415;-59
2022/05/05 07:15:08;;;;;;;7.70;5.20;;;11.40;62.90;;;;;;5073809;28;20447;-58
2022/05/05 07:17:35;;;;;;;7.50;5.63;;;11.50;62.40;;;;;;5074160;28;20496;-59
2022/05/05 07:20:03;;;;;;;9.73;6.17;;;11.60;62.00;;;;;;5074063;28;20435;-58
2022/05/05 07:22:30;;;;;;;8.27;5.93;;;11.70;61.40;;;;;;5073272;28;20447;-59
2022/05/05 07:24:57;;;;;;;9.70;5.90;;;11.70;61.00;;;;;;5074013;28;20450;-60
2022/05/05 07:27:24;;;;;;;10.23;6.20;;;11.90;60.70;;;;;;5073947;28;20597;-60
2022/05/05 07:29:51;;;;;;;9.60;5.93;;;12.00;60.10;;;;;;5073409;28;20486;-60
2022/05/05 07:32:20;;;;;;;11.63;7.00;;;12.20;59.60;;;;;;5074131;28;20454;-60
2022/05/05 07:34:47;;;;;;;6.77;5.33;;;12.40;58.70;;;;;;5074338;28;20829;-60
2022/05/05 07:37:14;;;;;;;11.20;5.33;;;12.50;58.20;;;;;;5073306;28;20477;-61
2022/05/05 07:39:42;;;;;;;11.37;5.83;;;12.60;57.30;;;;;;5074696;28;20806;-59
2022/05/05 07:42:09;;;;;;;7.43;5.03;;;12.60;57.00;;;;;;5073986;28;20447;-59
2022/05/05 07:44:36;;;;;;;8.93;5.20;;;12.60;56.80;;;;;;5074283;28;20453;-59
2022/05/05 07:47:04;;;;;;;9.43;5.17;;;12.80;56.50;;;;;;5073178;28;20489;-59
2022/05/05 07:49:32;;;;;;;6.57;4.83;;;12.80;56.10;;;;;;5084896;28;20539;-60
2022/05/05 07:51:59;;;;;;;8.07;4.77;;;12.80;55.70;;;;;;5077323;28;20448;-60
2022/05/05 07:54:38;;;;;;;8.13;5.17;;;12.90;55.40;;;;;;5076531;28;20947;-58
2022/05/05 07:57:07;;;;;;;15.30;6.03;;;13.00;55.10;;;;;;5083161;28;20457;-60
2022/05/05 07:59:34;;;;;;;12.10;5.87;;;13.00;54.80;;;;;;5073259;28;20438;-59
2022/05/05 08:02:02;;;;;;;8.63;5.30;;;13.10;54.60;;;;;;5073879;28;20458;-60
2022/05/05 08:04:30;;;;;;;8.60;4.90;;;13.10;54.40;;;;;;5072618;28;20887;-60
2022/05/05 08:06:59;;;;;;;9.40;5.27;;;13.10;53.30;;;;;;5073673;28;20473;-60
2022/05/05 08:09:26;;;;;;;6.73;4.80;;;13.10;52.50;;;;;;5073282;28;20491;-60
2022/05/05 08:11:53;;;;;;;9.20;5.83;;;13.10;52.90;;;;;;5073236;28;20445;-60
2022/05/05 08:14:20;;;;;;;9.87;5.00;;;13.10;52.40;;;;;;5074012;28;20442;-61
2022/05/05 08:16:47;;;;;;;10.13;5.43;;;13.20;52.40;;;;;;5073928;28;20447;-59
2022/05/05 08:19:14;;;;;;;9.10;5.70;;;13.30;52.30;;;;;;5073355;28;20456;-60
2022/05/05 08:21:41;;;;;;;9.90;5.37;;;13.40;51.90;;;;;;5074221;28;20445;-59
2022/05/05 08:29:39;;;;;;;9.50;6.00;;;13.80;52.00;;;;;;5074445;28;20599;-60
2022/05/05 08:32:07;;;;;;;7.87;6.50;;;13.90;51.80;;;;;;5074587;28;20962;-58
2022/05/05 08:34:34;;;;;;;9.23;6.10;;;14.00;51.60;;;;;;5074491;28;20447;-59
2022/05/05 08:37:01;;;;;;;10.00;6.20;;;14.10;51.50;;;;;;5075157;28;20966;-59
2022/05/05 08:39:29;;;;;;;10.90;6.93;;;14.10;51.00;;;;;;5075815;28;20957;-58
2022/05/05 08:41:57;;;;;;;10.17;6.70;;;14.20;50.90;;;;;;5074216;28;20446;-59
2022/05/05 08:44:24;;;;;;;9.67;6.20;;;14.30;50.30;;;;;;5074583;28;20458;-58
2022/05/05 08:46:53;;;;;;;9.03;6.30;;;14.40;50.00;;;;;;5073857;28;20508;-60
2022/05/05 08:49:23;;;;;;;8.03;6.20;;;14.50;50.10;;;;;;5072662;28;20482;-59
2022/05/05 08:51:53;;;;;;;11.20;6.43;;;14.60;50.00;;;;;;5073951;28;20435;-59
2022/05/05 08:54:25;;;;;;;8.70;5.50;;;14.70;49.60;;;;;;5073427;28;20442;-60
2022/05/05 08:56:54;;;;;;;14.10;5.50;;;14.70;49.10;;;;;;5076198;28;20435;-61
2022/05/05 08:59:22;;;;;;;12.07;5.40;;;14.80;48.50;;;;;;5090523;28;20453;-59
2022/05/05 09:01:51;;;;;;;7.63;5.23;;;14.80;48.00;;;;;;5091332;28;20442;-58
2022/05/05 09:04:19;;;;;;;7.53;4.90;;;14.90;47.90;;;;;;5090224;28;20449;-60
2022/05/05 09:06:48;;;;;;;8.33;4.77;;;15.00;47.70;;;;;;5089714;28;20911;-60
2022/05/05 09:09:29;;;;;;;7.87;4.40;;;15.00;47.40;;;;;;5087881;28;20494;-60
2022/05/05 09:12:12;;;;;;;6.57;4.43;;;15.00;46.90;;;;;;5087757;28;20435;-60
2022/05/05 09:14:40;;;;;;;7.67;4.43;;;15.20;46.70;;;;;;5088766;28;20495;-60
2022/05/05 09:17:08;;;;;;;8.03;5.17;;;15.30;46.50;;;;;;5089578;28;20519;-61
2022/05/05 09:19:39;;;;;;;8.27;5.20;;;15.40;46.30;;;;;;5090280;28;20443;-59
2022/05/05 09:22:07;;;;;;;6.53;4.80;;;15.40;46.20;;;;;;5091456;28;20443;-61
2022/05/05 09:24:40;;;;;;;9.32;5.05;;;15.40;46.20;;;;;;5086573;28;20445;-61
2022/05/05 09:27:33;;;;;;;6.80;5.27;;;15.40;45.90;;;;;;5078573;28;20315;-60
2022/05/05 09:30:09;;;;;;;8.23;5.10;;;15.50;45.30;;;;;;5063423;28;20849;-61
2022/05/05 09:32:38;;;;;;;6.50;4.97;;;15.60;45.20;;;;;;5109225;22;20568;-57
2022/05/05 09:35:08;;;;;;;9.20;5.00;;;15.70;45.10;;;;;;5034131;28;20457;-57
2022/05/05 09:37:37;;;;;;;6.53;4.90;;;15.80;44.70;;;;;;5033977;28;20449;-59
2022/05/05 09:40:07;;;;;;;6.20;4.40;;;15.90;44.60;;;;;;5035151;28;20445;-58
2022/05/05 09:42:37;;;;;;;9.80;5.50;;;16.00;44.60;;;;;;5035687;28;20502;-59
2022/05/05 09:45:18;;;;;;;6.07;5.03;;;16.20;44.60;;;;;;5026144;28;20449;-58
2022/05/05 09:47:50;;;;;;;8.40;4.50;;;16.40;44.40;;;;;;5015184;28;20449;-58
2022/05/05 09:50:20;;;;;;;7.77;5.40;;;16.50;44.30;;;;;;5015246;28;20513;-59
2022/05/05 09:58:22;;;;;;;8.67;5.00;;;16.60;43.80;;;;;;5014931;28;20449;-60
2022/05/05 10:00:59;;;;;;;19.23;6.10;;;16.70;43.80;;;;;;5014500;28;20438;-59
2022/05/05 10:04:06;;;;;;;10.50;6.47;;;16.80;43.60;;;;;;5015114;28;20466;-60
2022/05/05 10:06:35;;;;;;;9.63;5.53;;;16.80;43.50;;;;;;5014420;28;20851;-58
2022/05/05 10:09:05;;;;;;;6.93;4.87;;;16.90;43.50;;;;;;5013664;28;20493;-57
2022/05/05 10:11:32;;;;;;;5.83;4.70;;;16.90;43.10;;;;;;5015009;28;20469;-57
2022/05/05 10:14:03;;;;;;;6.37;4.63;;;17.00;43.00;;;;;;5015114;28;20477;-62
2022/05/05 10:16:31;;;;;;;11.10;5.23;;;17.20;42.70;;;;;;5014431;28;20446;-62
2022/05/05 10:18:59;;;;;;;12.27;4.30;;;17.20;42.40;;;;;;5014884;28;20453;-63
2022/05/05 10:21:46;;;;;;;7.03;4.90;;;17.10;42.20;;;;;;5014298;28;20463;-62
2022/05/05 10:24:18;;;;;;;5.33;4.60;;;17.20;42.40;;;;;;5015125;28;20465;-62
2022/05/05 10:26:50;;;;;;;5.27;3.93;;;17.40;42.20;;;;;;5014900;28;20430;-62
2022/05/05 10:29:49;;;;;;;7.20;4.00;;;17.50;42.00;;;;;;5013919;28;20452;-61
2022/05/05 10:32:20;;;;;;;10.77;4.20;;;17.50;41.80;;;;;;4953921;29;20485;-61
2022/05/05 10:34:53;;;;;;;5.10;4.00;;;17.50;41.70;;;;;;5001591;28;20454;-58
2022/05/05 10:37:22;;;;;;;6.47;3.97;;;17.50;41.80;;;;;;5015184;28;20183;-58
2022/05/05 10:39:51;;;;;;;7.23;4.37;;;17.60;41.70;;;;;;5015196;28;20461;-57
2022/05/05 10:42:24;;;;;;;6.37;4.50;;;17.60;41.20;;;;;;5013872;28;20511;-58
2022/05/05 10:45:08;;;;;;;3.63;3.03;;;17.60;41.20;;;;;;5014259;28;20470;-58
2022/05/05 10:48:16;;;;;;;4.47;3.63;;;17.50;40.90;;;;;;5014825;28;20474;-57
2022/05/05 10:50:50;;;;;;;5.13;3.60;;;17.60;40.70;;;;;;5013521;28;20817;-59
2022/05/05 10:53:29;;;;;;;3.87;3.47;;;17.60;40.50;;;;;;5014151;28;20469;-58
2022/05/05 10:55:57;;;;;;;4.83;2.90;;;17.70;40.30;;;;;;5014516;28;20512;-58
2022/05/05 10:58:59;;;;;;;3.60;3.03;;;17.80;40.10;;;;;;5013325;28;20450;-58
2022/05/05 11:01:30;;;;;;;5.97;2.90;;;17.90;39.30;;;;;;5013081;28;20453;-58
2022/05/05 11:04:28;;;;;;;3.20;2.00;;;17.90;38.50;;;;;;5014233;28;20576;-58
2022/05/05 11:07:25;;;;;;;5.60;3.43;;;17.90;37.90;;;;;;5015130;28;20469;-59
2022/05/05 11:09:53;;;;;;;5.50;2.93;;;17.90;37.50;;;;;;5013279;28;21063;-59
2022/05/05 11:12:21;;;;;;;2.63;1.90;;;17.90;38.10;;;;;;5013579;28;20862;-59
2022/05/05 11:23:44;;;;;;;3.13;2.30;;;18.10;36.60;;;;;;5013253;28;20449;-57
2022/05/05 11:26:14;;;;;;;2.47;2.00;;;18.10;36.20;;;;;;5013149;28;20831;-57
2022/05/05 11:28:42;;;;;;;2.73;2.20;;;18.10;36.20;;;;;;5012344;28;20453;-57
2022/05/05 11:31:22;;;;;;;2.10;1.50;;;18.20;36.20;;;;;;5013222;28;20481;-57
2022/05/05 11:33:54;;;;;;;4.83;2.20;;;18.30;36.00;;;;;;5013537;28;20485;-57
2022/05/05 11:36:27;;;;;;;3.50;1.77;;;18.50;35.60;;;;;;5012448;28;20504;-57
2022/05/05 11:38:55;;;;;;;2.10;1.37;;;18.70;35.30;;;;;;5012640;28;20944;-56
2022/05/05 11:41:23;;;;;;;2.83;1.97;;;18.80;35.00;;;;;;5013939;28;20818;-58
2022/05/05 11:46:36;;;;;;;2.20;2.00;;;19.00;34.50;;;;;;5012746;28;20488;-58
2022/05/05 11:49:03;;;;;;;4.37;2.13;;;19.40;34.40;;;;;;5013492;28;20453;-58
2022/05/05 11:51:33;;;;;;;3.43;1.50;;;20.00;34.00;;;;;;5013083;28;20478;-59
2022/05/05 11:54:02;;;;;;;1.60;1.50;;;20.60;32.80;;;;;;5012660;28;20606;-59
2022/05/05 11:56:29;;;;;;;2.67;1.90;;;21.00;32.00;;;;;;5013158;28;20822;-59
2022/05/05 12:01:54;;;;;;;2.67;1.50;;;21.10;30.60;;;;;;5013202;28;20401;-58
2022/05/05 12:04:22;;;;;;;3.37;1.90;;;21.30;30.50;;;;;;5012801;28;20472;-56
2022/05/05 12:06:51;;;;;;;4.20;2.03;;;21.50;30.40;;;;;;5013708;28;20465;-58
2022/05/05 12:09:21;;;;;;;3.27;2.00;;;21.70;30.30;;;;;;5012905;28;20453;-57
2022/05/05 12:11:48;;;;;;;5.10;1.70;;;21.90;30.10;;;;;;5013430;28;20863;-58
2022/05/05 12:14:20;;;;;;;2.30;2.10;;;22.10;30.00;;;;;;5013733;28;20473;-58
2022/05/05 12:16:47;;;;;;;2.23;1.57;;;22.20;30.00;;;;;;5012967;28;20505;-56
2022/05/05 12:19:17;;;;;;;2.13;1.67;;;22.20;29.80;;;;;;5014983;28;20500;-57
2022/05/05 12:21:54;;;;;;;4.50;1.70;;;22.10;29.70;;;;;;5012893;28;20453;-56
2022/05/05 12:24:23;;;;;;;2.37;1.40;;;22.10;29.80;;;;;;5013677;28;20821;-55
2022/05/05 12:26:52;;;;;;;2.07;1.53;;;21.90;29.80;;;;;;5014060;28;20445;-54
2022/05/05 12:29:20;;;;;;;2.47;2.00;;;21.60;30.00;;;;;;5013944;28;20924;-55
2022/05/05 12:31:55;;;;;;;2.30;1.70;;;21.10;30.50;;;;;;5017357;28;20513;-55
2022/05/05 12:34:28;;;;;;;4.17;2.00;;;20.80;31.00;;;;;;5017570;28;20550;-57
2022/05/05 12:37:16;;;;;;;2.47;1.77;;;20.50;31.40;;;;;;5017274;28;20461;-56
2022/05/05 12:39:55;;;;;;;2.70;1.73;;;20.30;31.80;;;;;;5017395;28;20438;-55
2022/05/05 12:42:23;;;;;;;2.07;1.77;;;20.20;32.00;;;;;;5017167;28;20789;-56
2022/05/05 12:44:51;;;;;;;1.93;1.70;;;20.10;32.00;;;;;;5016658;28;20992;-55
2022/05/05 12:47:26;;;;;;;2.33;1.73;;;20.00;32.20;;;;;;5016616;28;20954;-56
2022/05/05 12:49:53;;;;;;;3.13;1.47;;;19.90;32.10;;;;;;5016552;28;20453;-56
2022/05/05 13:00:53;;;;;;;2.67;1.63;;;19.90;32.20;;;;;;5016321;28;20445;-56
2022/05/05 13:03:21;;;;;;;2.47;2.17;;;20.00;32.30;;;;;;5016729;28;20466;-55
2022/05/05 13:05:49;;;;;;;2.17;1.70;;;19.80;31.80;;;;;;5016393;28;20489;-56
2022/05/05 13:08:17;;;;;;;3.03;2.00;;;19.90;32.10;;;;;;5016327;28;20492;-56
2022/05/05 13:10:45;;;;;;;2.47;2.20;;;19.90;31.80;;;;;;5016060;28;20481;-56
2022/05/05 13:13:13;;;;;;;2.20;1.60;;;20.00;31.80;;;;;;5016145;28;20531;-58
2022/05/05 13:15:40;;;;;;;3.90;2.57;;;20.00;31.90;;;;;;5016343;28;20479;-56
2022/05/05 13:18:08;;;;;;;1.53;1.37;;;20.10;32.10;;;;;;5016062;28;20453;-56
2022/05/05 13:20:35;;;;;;;2.23;1.80;;;20.20;32.10;;;;;;5016266;28;20445;-56
2022/05/05 13:23:02;;;;;;;1.93;1.50;;;20.40;31.80;;;;;;5016233;28;20545;-55
2022/05/05 13:25:30;;;;;;;2.80;1.30;;;20.60;31.50;;;;;;5015941;28;20537;-56
2022/05/05 13:27:58;;;;;;;3.60;1.70;;;20.70;31.30;;;;;;5016080;28;20450;-56
2022/05/05 13:30:25;;;;;;;3.00;2.00;;;20.70;31.30;;;;;;5016208;28;20484;-56
2022/05/05 13:32:52;;;;;;;4.33;1.80;;;20.90;31.40;;;;;;5015923;28;20473;-55
2022/05/05 13:35:19;;;;;;;5.03;2.00;;;20.90;31.10;;;;;;5015837;28;20438;-56
2022/05/05 13:37:46;;;;;;;2.43;1.50;;;20.90;31.00;;;;;;5016053;28;20573;-56
2022/05/05 13:40:17;;;;;;;2.80;1.63;;;21.00;31.10;;;;;;5015078;28;20453;-56
2022/05/05 13:42:45;;;;;;;2.20;1.30;;;21.00;30.80;;;;;;5015678;28;20446;-57
2022/05/05 13:45:12;;;;;;;2.50;1.50;;;21.00;31.00;;;;;;5015380;28;20952;-57
2022/05/05 13:47:39;;;;;;;2.63;1.70;;;20.90;31.00;;;;;;5015574;28;20453;-56
2022/05/05 13:50:08;;;;;;;2.03;1.70;;;20.90;31.10;;;;;;5015538;28;20442;-55